sensor_id;sensor_type;location;lat;lon;timestamp;temperature;humidity
50758;DHT22;36732;47.980;11.652;2023-04-03T00:00:56;8.80;58.10
50758;DHT22;36732;47.980;11.652;2023-04-03T00:03:22;8.80;58.10
50758;DHT22;36732;47.980;11.652;2023-04-03T00:05:48;8.80;58.00
50758;DHT22;36732;47.980;11.652;2023-04-03T00:08:15;8.80;58.00
50758;DHT22;36732;47.980;11.652;2023-04-03T00:10:41;8.80;57.90
50758;DHT22;36732;47.980;11.652;2023-04-03T00:13:07;8.70;58.10
50758;DHT22;36732;47.980;11.652;2023-04-03T00:15:34;8.70;58.20
50758;DHT22;36732;47.980;11.652;2023-04-03T00:18:00;8.70;58.20
50758;DHT22;36732;47.980;11.652;2023-04-03T00:20:26;8.70;58.20
50758;DHT22;36732;47.980;11.652;2023-04-03T00:22:53;8.70;58.20
50758;DHT22;36732;47.980;11.652;2023-04-03T00:25:19;8.70;58.30
50758;DHT22;36732;47.980;11.652;2023-04-03T00:27:45;8.70;58.40
50758;DHT22;36732;47.980;11.652;2023-04-03T00:30:14;8.70;58.40
50758;DHT22;36732;47.980;11.652;2023-04-03T00:32:41;8.70;58.30
50758;DHT22;36732;47.980;11.652;2023-04-03T00:35:08;8.70;58.30
50758;DHT22;36732;47.980;11.652;2023-04-03T00:37:34;8.70;58.40
50758;DHT22;36732;47.980;11.652;2023-04-03T00:39:59;8.70;58.50
50758;DHT22;36732;47.980;11.652;2023-04-03T00:42:25;8.70;58.50
50758;DHT22;36732;47.980;11.652;2023-04-03T00:47:23;8.70;58.50
50758;DHT22;36732;47.980;11.652;2023-04-03T00:49:52;8.70;58.60
50758;DHT22;36732;47.980;11.652;2023-04-03T00:52:22;8.70;58.60
50758;DHT22;36732;47.980;11.652;2023-04-03T00:54:52;8.70;58.70
50758;DHT22;36732;47.980;11.652;2023-04-03T00:57:21;8.70;58.60
50758;DHT22;36732;47.980;11.652;2023-04-03T00:59:55;8.70;58.50
50758;DHT22;36732;47.980;11.652;2023-04-03T01:02:23;8.70;58.40
50758;DHT22;36732;47.980;11.652;2023-04-03T01:04:49;8.80;58.40
50758;DHT22;36732;47.980;11.652;2023-04-03T01:07:17;8.80;58.30
50758;DHT22;36732;47.980;11.652;2023-04-03T01:09:47;8.80;58.40
50758;DHT22;36732;47.980;11.652;2023-04-03T01:12:23;8.80;58.30
50758;DHT22;36732;47.980;11.652;2023-04-03T01:14:57;8.80;58.30
50758;DHT22;36732;47.980;11.652;2023-04-03T01:17:45;8.80;58.30
50758;DHT22;36732;47.980;11.652;2023-04-03T01:25:35;8.90;58.30
50758;DHT22;36732;47.980;11.652;2023-04-03T01:28:24;8.90;58.10
50758;DHT22;36732;47.980;11.652;2023-04-03T01:31:00;8.90;58.70
50758;DHT22;36732;47.980;11.652;2023-04-03T01:33:34;8.90;58.00
50758;DHT22;36732;47.980;11.652;2023-04-03T01:36:01;8.90;58.00
50758;DHT22;36732;47.980;11.652;2023-04-03T01:38:27;8.90;58.00
50758;DHT22;36732;47.980;11.652;2023-04-03T01:40:53;8.90;58.00
50758;DHT22;36732;47.980;11.652;2023-04-03T01:43:18;8.90;57.90
50758;DHT22;36732;47.980;11.652;2023-04-03T01:45:44;8.90;57.90
50758;DHT22;36732;47.980;11.652;2023-04-03T01:48:13;8.80;57.90
50758;DHT22;36732;47.980;11.652;2023-04-03T01:50:39;8.90;58.00
50758;DHT22;36732;47.980;11.652;2023-04-03T01:53:04;8.90;58.00
50758;DHT22;36732;47.980;11.652;2023-04-03T01:55:30;8.90;58.00
50758;DHT22;36732;47.980;11.652;2023-04-03T01:57:56;8.90;58.00
50758;DHT22;36732;47.980;11.652;2023-04-03T02:00:21;8.90;58.00
50758;DHT22;36732;47.980;11.652;2023-04-03T02:02:47;8.90;58.00
50758;DHT22;36732;47.980;11.652;2023-04-03T02:05:13;8.90;58.00
50758;DHT22;36732;47.980;11.652;2023-04-03T02:07:39;8.90;58.00
50758;DHT22;36732;47.980;11.652;2023-04-03T02:10:05;8.90;58.00
50758;DHT22;36732;47.980;11.652;2023-04-03T02:12:31;8.90;58.00
50758;DHT22;36732;47.980;11.652;2023-04-03T02:14:57;8.90;58.00
50758;DHT22;36732;47.980;11.652;2023-04-03T02:17:22;8.90;58.00
50758;DHT22;36732;47.980;11.652;2023-04-03T02:19:48;8.90;58.00
50758;DHT22;36732;47.980;11.652;2023-04-03T02:22:14;8.90;58.00
50758;DHT22;36732;47.980;11.652;2023-04-03T02:24:40;8.90;58.00
50758;DHT22;36732;47.980;11.652;2023-04-03T02:27:06;8.90;58.00
50758;DHT22;36732;47.980;11.652;2023-04-03T02:29:32;8.90;58.10
50758;DHT22;36732;47.980;11.652;2023-04-03T02:31:58;8.80;58.20
50758;DHT22;36732;47.980;11.652;2023-04-03T02:34:23;8.90;58.30
50758;DHT22;36732;47.980;11.652;2023-04-03T02:36:49;8.90;58.30
50758;DHT22;36732;47.980;11.652;2023-04-03T02:39:16;8.90;58.30
50758;DHT22;36732;47.980;11.652;2023-04-03T02:41:41;8.90;58.30
50758;DHT22;36732;47.980;11.652;2023-04-03T02:44:10;8.90;58.30
50758;DHT22;36732;47.980;11.652;2023-04-03T02:46:36;8.90;58.20
50758;DHT22;36732;47.980;11.652;2023-04-03T02:49:02;8.80;58.10
50758;DHT22;36732;47.980;11.652;2023-04-03T02:51:28;8.80;58.20
50758;DHT22;36732;47.980;11.652;2023-04-03T02:53:54;8.80;58.00
50758;DHT22;36732;47.980;11.652;2023-04-03T02:56:20;8.80;58.20
50758;DHT22;36732;47.980;11.652;2023-04-03T02:58:46;8.80;58.30
50758;DHT22;36732;47.980;11.652;2023-04-03T03:01:12;8.80;58.40
50758;DHT22;36732;47.980;11.652;2023-04-03T03:03:38;8.80;58.40
50758;DHT22;36732;47.980;11.652;2023-04-03T03:06:05;8.80;58.50
50758;DHT22;36732;47.980;11.652;2023-04-03T03:08:33;8.80;58.30
50758;DHT22;36732;47.980;11.652;2023-04-03T03:10:59;8.80;58.30
50758;DHT22;36732;47.980;11.652;2023-04-03T03:13:25;8.80;58.20
50758;DHT22;36732;47.980;11.652;2023-04-03T03:15:51;8.80;58.20
50758;DHT22;36732;47.980;11.652;2023-04-03T03:18:17;8.80;58.30
50758;DHT22;36732;47.980;11.652;2023-04-03T03:20:43;8.80;58.20
50758;DHT22;36732;47.980;11.652;2023-04-03T03:23:09;8.80;58.20
50758;DHT22;36732;47.980;11.652;2023-04-03T03:25:41;8.80;57.90
50758;DHT22;36732;47.980;11.652;2023-04-03T03:28:07;8.70;57.90
50758;DHT22;36732;47.980;11.652;2023-04-03T03:30:33;8.70;57.90
50758;DHT22;36732;47.980;11.652;2023-04-03T03:33:00;8.70;58.10
50758;DHT22;36732;47.980;11.652;2023-04-03T03:35:26;8.70;58.10
50758;DHT22;36732;47.980;11.652;2023-04-03T03:37:52;8.70;58.10
50758;DHT22;36732;47.980;11.652;2023-04-03T03:40:18;8.70;58.00
50758;DHT22;36732;47.980;11.652;2023-04-03T03:42:43;8.70;58.10
50758;DHT22;36732;47.980;11.652;2023-04-03T03:45:10;8.60;58.30
50758;DHT22;36732;47.980;11.652;2023-04-03T03:47:35;8.60;58.20
50758;DHT22;36732;47.980;11.652;2023-04-03T03:50:02;8.60;58.20
50758;DHT22;36732;47.980;11.652;2023-04-03T03:52:28;8.60;58.30
50758;DHT22;36732;47.980;11.652;2023-04-03T03:54:55;8.60;58.20
50758;DHT22;36732;47.980;11.652;2023-04-03T03:57:21;8.60;58.30
50758;DHT22;36732;47.980;11.652;2023-04-03T03:59:47;8.60;58.30
50758;DHT22;36732;47.980;11.652;2023-04-03T04:02:14;8.50;58.20
50758;DHT22;36732;47.980;11.652;2023-04-03T04:04:40;8.50;58.30
50758;DHT22;36732;47.980;11.652;2023-04-03T04:07:05;8.50;58.30
50758;DHT22;36732;47.980;11.652;2023-04-03T04:09:31;8.50;58.30
50758;DHT22;36732;47.980;11.652;2023-04-03T04:11:57;8.50;58.30
50758;DHT22;36732;47.980;11.652;2023-04-03T04:14:23;8.50;58.30
50758;DHT22;36732;47.980;11.652;2023-04-03T04:16:48;8.50;58.40
50758;DHT22;36732;47.980;11.652;2023-04-03T04:19:14;8.50;58.30
50758;DHT22;36732;47.980;11.652;2023-04-03T04:21:40;8.50;58.80
50758;DHT22;36732;47.980;11.652;2023-04-03T04:24:07;8.50;58.30
50758;DHT22;36732;47.980;11.652;2023-04-03T04:26:33;8.50;58.40
50758;DHT22;36732;47.980;11.652;2023-04-03T04:29:00;8.50;58.20
50758;DHT22;36732;47.980;11.652;2023-04-03T04:31:26;8.50;58.10
50758;DHT22;36732;47.980;11.652;2023-04-03T04:33:53;8.50;58.10
50758;DHT22;36732;47.980;11.652;2023-04-03T04:36:18;8.50;58.00
50758;DHT22;36732;47.980;11.652;2023-04-03T04:38:45;8.50;57.90
50758;DHT22;36732;47.980;11.652;2023-04-03T04:41:10;8.50;57.90
50758;DHT22;36732;47.980;11.652;2023-04-03T04:43:36;8.50;58.00
50758;DHT22;36732;47.980;11.652;2023-04-03T04:46:07;8.40;57.90
50758;DHT22;36732;47.980;11.652;2023-04-03T04:48:34;8.40;58.00
50758;DHT22;36732;47.980;11.652;2023-04-03T04:51:01;8.30;58.00
50758;DHT22;36732;47.980;11.652;2023-04-03T04:53:27;8.30;58.10
50758;DHT22;36732;47.980;11.652;2023-04-03T04:55:52;8.30;58.20
50758;DHT22;36732;47.980;11.652;2023-04-03T04:58:19;8.30;58.20
50758;DHT22;36732;47.980;11.652;2023-04-03T05:00:45;8.30;58.30
50758;DHT22;36732;47.980;11.652;2023-04-03T05:03:11;8.30;58.50
50758;DHT22;36732;47.980;11.652;2023-04-03T05:05:37;8.30;58.50
50758;DHT22;36732;47.980;11.652;2023-04-03T05:08:03;8.30;58.40
50758;DHT22;36732;47.980;11.652;2023-04-03T05:10:29;8.30;58.50
50758;DHT22;36732;47.980;11.652;2023-04-03T05:12:55;8.30;58.40
50758;DHT22;36732;47.980;11.652;2023-04-03T05:15:20;8.30;58.30
50758;DHT22;36732;47.980;11.652;2023-04-03T05:17:46;8.30;58.40
50758;DHT22;36732;47.980;11.652;2023-04-03T05:20:12;8.30;58.40
50758;DHT22;36732;47.980;11.652;2023-04-03T05:22:38;8.30;58.50
50758;DHT22;36732;47.980;11.652;2023-04-03T05:25:04;8.30;58.50
50758;DHT22;36732;47.980;11.652;2023-04-03T05:27:31;8.30;58.50
50758;DHT22;36732;47.980;11.652;2023-04-03T05:29:56;8.30;58.50
50758;DHT22;36732;47.980;11.652;2023-04-03T05:32:23;8.20;58.40
50758;DHT22;36732;47.980;11.652;2023-04-03T05:34:50;8.20;58.50
50758;DHT22;36732;47.980;11.652;2023-04-03T05:37:17;8.20;58.50
50758;DHT22;36732;47.980;11.652;2023-04-03T05:39:43;8.20;58.50
50758;DHT22;36732;47.980;11.652;2023-04-03T05:42:08;8.20;58.50
50758;DHT22;36732;47.980;11.652;2023-04-03T05:44:34;8.20;58.50
50758;DHT22;36732;47.980;11.652;2023-04-03T05:47:00;8.20;58.60
50758;DHT22;36732;47.980;11.652;2023-04-03T05:49:26;8.20;58.50
50758;DHT22;36732;47.980;11.652;2023-04-03T05:51:52;8.20;58.40
50758;DHT22;36732;47.980;11.652;2023-04-03T05:54:21;8.20;58.50
50758;DHT22;36732;47.980;11.652;2023-04-03T05:56:50;8.10;58.60
50758;DHT22;36732;47.980;11.652;2023-04-03T05:59:17;8.10;58.70
50758;DHT22;36732;47.980;11.652;2023-04-03T06:01:43;8.10;58.70
50758;DHT22;36732;47.980;11.652;2023-04-03T06:04:10;8.10;58.90
50758;DHT22;36732;47.980;11.652;2023-04-03T06:09:20;8.20;59.00
50758;DHT22;36732;47.980;11.652;2023-04-03T06:11:47;8.20;58.90
50758;DHT22;36732;47.980;11.652;2023-04-03T06:14:13;8.20;58.90
50758;DHT22;36732;47.980;11.652;2023-04-03T06:16:39;8.20;58.80
50758;DHT22;36732;47.980;11.652;2023-04-03T06:19:06;8.20;58.80
50758;DHT22;36732;47.980;11.652;2023-04-03T06:21:33;8.20;58.90
50758;DHT22;36732;47.980;11.652;2023-04-03T06:23:59;8.20;58.90
50758;DHT22;36732;47.980;11.652;2023-04-03T06:26:24;8.30;58.90
50758;DHT22;36732;47.980;11.652;2023-04-03T06:28:50;8.30;58.80
50758;DHT22;36732;47.980;11.652;2023-04-03T06:31:16;8.30;58.80
50758;DHT22;36732;47.980;11.652;2023-04-03T06:33:42;8.30;58.60
50758;DHT22;36732;47.980;11.652;2023-04-03T06:36:10;8.30;58.60
50758;DHT22;36732;47.980;11.652;2023-04-03T06:38:37;8.30;58.40
50758;DHT22;36732;47.980;11.652;2023-04-03T06:41:03;8.30;58.40
50758;DHT22;36732;47.980;11.652;2023-04-03T06:43:28;8.30;58.10
50758;DHT22;36732;47.980;11.652;2023-04-03T06:45:56;8.30;58.20
50758;DHT22;36732;47.980;11.652;2023-04-03T06:48:22;8.30;58.30
50758;DHT22;36732;47.980;11.652;2023-04-03T06:50:48;8.20;58.30
50758;DHT22;36732;47.980;11.652;2023-04-03T06:53:14;8.20;58.30
50758;DHT22;36732;47.980;11.652;2023-04-03T06:55:40;8.20;58.40
50758;DHT22;36732;47.980;11.652;2023-04-03T06:58:06;8.20;58.40
50758;DHT22;36732;47.980;11.652;2023-04-03T07:00:32;8.20;58.40
50758;DHT22;36732;47.980;11.652;2023-04-03T07:02:58;8.20;58.50
50758;DHT22;36732;47.980;11.652;2023-04-03T07:05:25;8.20;58.50
50758;DHT22;36732;47.980;11.652;2023-04-03T07:07:51;8.20;58.70
50758;DHT22;36732;47.980;11.652;2023-04-03T07:10:17;8.20;58.60
50758;DHT22;36732;47.980;11.652;2023-04-03T07:12:44;8.20;58.60
50758;DHT22;36732;47.980;11.652;2023-04-03T07:15:10;8.20;58.70
50758;DHT22;36732;47.980;11.652;2023-04-03T07:17:38;8.20;58.70
50758;DHT22;36732;47.980;11.652;2023-04-03T07:20:04;8.10;58.70
50758;DHT22;36732;47.980;11.652;2023-04-03T07:22:31;8.20;58.80
50758;DHT22;36732;47.980;11.652;2023-04-03T07:24:56;8.20;58.80
50758;DHT22;36732;47.980;11.652;2023-04-03T07:27:24;8.20;58.80
50758;DHT22;36732;47.980;11.652;2023-04-03T07:29:50;8.20;58.80
50758;DHT22;36732;47.980;11.652;2023-04-03T07:32:16;8.30;58.90
50758;DHT22;36732;47.980;11.652;2023-04-03T07:34:43;8.30;58.90
50758;DHT22;36732;47.980;11.652;2023-04-03T07:37:09;8.30;59.50
50758;DHT22;36732;47.980;11.652;2023-04-03T07:39:35;8.30;58.80
50758;DHT22;36732;47.980;11.652;2023-04-03T07:42:01;8.30;58.60
50758;DHT22;36732;47.980;11.652;2023-04-03T07:44:27;8.30;58.60
50758;DHT22;36732;47.980;11.652;2023-04-03T07:46:54;8.30;58.50
50758;DHT22;36732;47.980;11.652;2023-04-03T07:49:23;8.30;58.40
50758;DHT22;36732;47.980;11.652;2023-04-03T07:51:49;8.30;58.50
50758;DHT22;36732;47.980;11.652;2023-04-03T07:54:16;8.30;58.60
50758;DHT22;36732;47.980;11.652;2023-04-03T07:56:42;8.40;58.50
50758;DHT22;36732;47.980;11.652;2023-04-03T07:59:09;8.40;58.40
50758;DHT22;36732;47.980;11.652;2023-04-03T08:01:35;8.40;58.40
50758;DHT22;36732;47.980;11.652;2023-04-03T08:04:01;8.40;58.30
50758;DHT22;36732;47.980;11.652;2023-04-03T08:06:27;8.40;58.30
50758;DHT22;36732;47.980;11.652;2023-04-03T08:08:55;8.40;58.50
50758;DHT22;36732;47.980;11.652;2023-04-03T08:11:21;8.30;58.40
50758;DHT22;36732;47.980;11.652;2023-04-03T08:13:47;8.30;58.50
50758;DHT22;36732;47.980;11.652;2023-04-03T08:16:17;8.30;58.50
50758;DHT22;36732;47.980;11.652;2023-04-03T08:18:43;8.30;58.20
50758;DHT22;36732;47.980;11.652;2023-04-03T08:21:10;8.30;58.40
50758;DHT22;36732;47.980;11.652;2023-04-03T08:23:37;8.30;58.40
50758;DHT22;36732;47.980;11.652;2023-04-03T08:26:09;8.30;58.50
50758;DHT22;36732;47.980;11.652;2023-04-03T08:28:36;8.30;58.50
50758;DHT22;36732;47.980;11.652;2023-04-03T08:31:04;8.30;58.70
50758;DHT22;36732;47.980;11.652;2023-04-03T08:33:36;8.30;59.10
50758;DHT22;36732;47.980;11.652;2023-04-03T08:36:04;8.30;58.50
50758;DHT22;36732;47.980;11.652;2023-04-03T08:38:32;8.30;58.60
50758;DHT22;36732;47.980;11.652;2023-04-03T08:42:13;8.30;58.50
50758;DHT22;36732;47.980;11.652;2023-04-03T08:44:31;8.30;58.40
50758;DHT22;36732;47.980;11.652;2023-04-03T08:47:22;8.30;58.30
50758;DHT22;36732;47.980;11.652;2023-04-03T08:50:01;8.30;58.40
50758;DHT22;36732;47.980;11.652;2023-04-03T08:55:24;8.30;58.00
50758;DHT22;36732;47.980;11.652;2023-04-03T08:58:06;8.30;58.00
50758;DHT22;36732;47.980;11.652;2023-04-03T09:03:48;8.30;58.30
50758;DHT22;36732;47.980;11.652;2023-04-03T09:09:01;8.30;58.20
50758;DHT22;36732;47.980;11.652;2023-04-03T09:11:41;8.30;58.30
50758;DHT22;36732;47.980;11.652;2023-04-03T09:14:23;8.30;58.30
50758;DHT22;36732;47.980;11.652;2023-04-03T09:16:57;8.30;58.30
50758;DHT22;36732;47.980;11.652;2023-04-03T09:22:26;8.30;58.10
50758;DHT22;36732;47.980;11.652;2023-04-03T09:27:41;8.30;58.10
50758;DHT22;36732;47.980;11.652;2023-04-03T09:30:22;8.30;58.20
50758;DHT22;36732;47.980;11.652;2023-04-03T09:32:53;8.30;58.10
50758;DHT22;36732;47.980;11.652;2023-04-03T09:35:22;8.20;58.30
50758;DHT22;36732;47.980;11.652;2023-04-03T09:37:58;8.20;58.40
50758;DHT22;36732;47.980;11.652;2023-04-03T09:42:52;8.20;58.30
50758;DHT22;36732;47.980;11.652;2023-04-03T09:45:33;8.30;58.50
50758;DHT22;36732;47.980;11.652;2023-04-03T09:50:41;8.20;58.00
50758;DHT22;36732;47.980;11.652;2023-04-03T09:53:36;8.30;58.00
50758;DHT22;36732;47.980;11.652;2023-04-03T09:56:25;8.30;58.20
50758;DHT22;36732;47.980;11.652;2023-04-03T09:59:08;8.30;58.10
50758;DHT22;36732;47.980;11.652;2023-04-03T10:01:43;8.30;58.40
50758;DHT22;36732;47.980;11.652;2023-04-03T10:04:22;8.30;58.50
50758;DHT22;36732;47.980;11.652;2023-04-03T10:06:51;8.40;58.70
50758;DHT22;36732;47.980;11.652;2023-04-03T10:09:28;8.40;58.10
50758;DHT22;36732;47.980;11.652;2023-04-03T10:12:12;8.40;57.80
50758;DHT22;36732;47.980;11.652;2023-04-03T10:14:57;8.40;57.60
50758;DHT22;36732;47.980;11.652;2023-04-03T10:17:37;8.40;57.90
50758;DHT22;36732;47.980;11.652;2023-04-03T10:23:28;8.50;57.50
50758;DHT22;36732;47.980;11.652;2023-04-03T10:26:21;8.50;57.80
50758;DHT22;36732;47.980;11.652;2023-04-03T10:29:06;8.50;57.30
50758;DHT22;36732;47.980;11.652;2023-04-03T10:34:46;8.60;57.30
50758;DHT22;36732;47.980;11.652;2023-04-03T10:37:35;8.60;56.90
50758;DHT22;36732;47.980;11.652;2023-04-03T10:46:32;8.50;57.60
50758;DHT22;36732;47.980;11.652;2023-04-03T10:52:06;8.50;57.60
50758;DHT22;36732;47.980;11.652;2023-04-03T10:55:02;8.50;57.10
50758;DHT22;36732;47.980;11.652;2023-04-03T10:57:49;8.60;57.10
50758;DHT22;36732;47.980;11.652;2023-04-03T11:00:22;8.50;57.40
50758;DHT22;36732;47.980;11.652;2023-04-03T11:03:03;8.50;57.30
50758;DHT22;36732;47.980;11.652;2023-04-03T11:05:41;8.60;57.20
50758;DHT22;36732;47.980;11.652;2023-04-03T11:10:55;8.60;57.30
50758;DHT22;36732;47.980;11.652;2023-04-03T11:13:49;8.70;57.30
50758;DHT22;36732;47.980;11.652;2023-04-03T11:16:23;8.70;56.90
50758;DHT22;36732;47.980;11.652;2023-04-03T11:19:11;8.70;57.10
50758;DHT22;36732;47.980;11.652;2023-04-03T11:21:54;8.70;57.00
50758;DHT22;36732;47.980;11.652;2023-04-03T11:24:54;8.70;57.00
50758;DHT22;36732;47.980;11.652;2023-04-03T11:27:25;8.80;57.30
50758;DHT22;36732;47.980;11.652;2023-04-03T11:29:53;8.80;57.00
50758;DHT22;36732;47.980;11.652;2023-04-03T11:32:52;8.80;56.90
50758;DHT22;36732;47.980;11.652;2023-04-03T11:35:24;8.80;55.80
50758;DHT22;36732;47.980;11.652;2023-04-03T11:37:52;8.80;56.20
50758;DHT22;36732;47.980;11.652;2023-04-03T11:40:25;8.80;56.00
50758;DHT22;36732;47.980;11.652;2023-04-03T11:43:04;8.80;56.00
50758;DHT22;36732;47.980;11.652;2023-04-03T11:45:49;8.70;55.00
50758;DHT22;36732;47.980;11.652;2023-04-03T11:50:55;8.70;55.70
50758;DHT22;36732;47.980;11.652;2023-04-03T11:53:29;8.70;55.90
50758;DHT22;36732;47.980;11.652;2023-04-03T12:01:54;8.50;56.10
50758;DHT22;36732;47.980;11.652;2023-04-03T12:04:23;8.50;56.10
50758;DHT22;36732;47.980;11.652;2023-04-03T12:07:00;8.40;56.30
50758;DHT22;36732;47.980;11.652;2023-04-03T12:12:35;8.40;56.40
50758;DHT22;36732;47.980;11.652;2023-04-03T12:15:23;8.40;56.30
50758;DHT22;36732;47.980;11.652;2023-04-03T12:17:51;8.40;56.60
50758;DHT22;36732;47.980;11.652;2023-04-03T12:23:34;8.40;57.00
50758;DHT22;36732;47.980;11.652;2023-04-03T12:26:26;8.40;57.00
50758;DHT22;36732;47.980;11.652;2023-04-03T12:32:40;8.40;56.50
50758;DHT22;36732;47.980;11.652;2023-04-03T12:38:21;8.40;56.70
50758;DHT22;36732;47.980;11.652;2023-04-03T12:46:50;8.50;56.40
50758;DHT22;36732;47.980;11.652;2023-04-03T12:51:52;8.50;56.30
50758;DHT22;36732;47.980;11.652;2023-04-03T12:54:23;8.50;56.50
50758;DHT22;36732;47.980;11.652;2023-04-03T12:57:09;8.50;56.90
50758;DHT22;36732;47.980;11.652;2023-04-03T12:59:42;8.50;57.00
50758;DHT22;36732;47.980;11.652;2023-04-03T13:02:30;8.60;56.90
50758;DHT22;36732;47.980;11.652;2023-04-03T13:05:06;8.60;56.70
50758;DHT22;36732;47.980;11.652;2023-04-03T13:07:38;8.60;56.60
50758;DHT22;36732;47.980;11.652;2023-04-03T13:12:44;8.60;56.70
50758;DHT22;36732;47.980;11.652;2023-04-03T13:15:40;8.60;56.70
50758;DHT22;36732;47.980;11.652;2023-04-03T13:20:50;8.60;56.70
50758;DHT22;36732;47.980;11.652;2023-04-03T13:23:17;8.60;57.00
50758;DHT22;36732;47.980;11.652;2023-04-03T13:25:47;8.60;56.70
50758;DHT22;36732;47.980;11.652;2023-04-03T13:28:18;8.70;56.80
50758;DHT22;36732;47.980;11.652;2023-04-03T13:31:05;8.70;57.00
50758;DHT22;36732;47.980;11.652;2023-04-03T13:33:36;8.70;56.80
50758;DHT22;36732;47.980;11.652;2023-04-03T13:36:13;8.70;56.90
50758;DHT22;36732;47.980;11.652;2023-04-03T13:38:43;8.70;56.90
50758;DHT22;36732;47.980;11.652;2023-04-03T13:44:26;8.70;56.50
50758;DHT22;36732;47.980;11.652;2023-04-03T13:47:01;8.80;56.50
50758;DHT22;36732;47.980;11.652;2023-04-03T13:49:58;8.80;56.60
50758;DHT22;36732;47.980;11.652;2023-04-03T13:52:31;8.80;56.40
50758;DHT22;36732;47.980;11.652;2023-04-03T13:55:25;8.80;56.40
50758;DHT22;36732;47.980;11.652;2023-04-03T13:58:22;8.80;56.10
50758;DHT22;36732;47.980;11.652;2023-04-03T14:03:38;8.90;56.40
50758;DHT22;36732;47.980;11.652;2023-04-03T14:06:21;8.90;56.40
50758;DHT22;36732;47.980;11.652;2023-04-03T14:08:47;8.90;56.50
50758;DHT22;36732;47.980;11.652;2023-04-03T14:11:28;8.90;56.20
50758;DHT22;36732;47.980;11.652;2023-04-03T14:13:56;8.90;55.80
50758;DHT22;36732;47.980;11.652;2023-04-03T14:16:27;9.00;55.70
50758;DHT22;36732;47.980;11.652;2023-04-03T14:18:55;9.00;55.80
50758;DHT22;36732;47.980;11.652;2023-04-03T14:21:22;9.00;55.90
50758;DHT22;36732;47.980;11.652;2023-04-03T14:23:49;9.00;55.80
50758;DHT22;36732;47.980;11.652;2023-04-03T14:26:21;9.00;55.70
50758;DHT22;36732;47.980;11.652;2023-04-03T14:28:51;9.00;55.40
50758;DHT22;36732;47.980;11.652;2023-04-03T14:31:19;9.10;55.30
50758;DHT22;36732;47.980;11.652;2023-04-03T14:33:46;9.10;55.10
50758;DHT22;36732;47.980;11.652;2023-04-03T14:36:16;9.00;55.00
50758;DHT22;36732;47.980;11.652;2023-04-03T14:38:44;9.00;55.00
50758;DHT22;36732;47.980;11.652;2023-04-03T14:41:13;9.10;55.00
50758;DHT22;36732;47.980;11.652;2023-04-03T14:43:42;9.00;54.90
50758;DHT22;36732;47.980;11.652;2023-04-03T14:46:22;9.00;55.00
50758;DHT22;36732;47.980;11.652;2023-04-03T14:48:51;9.00;52.40
50758;DHT22;36732;47.980;11.652;2023-04-03T14:51:17;9.00;52.90
50758;DHT22;36732;47.980;11.652;2023-04-03T14:53:44;9.00;52.30
50758;DHT22;36732;47.980;11.652;2023-04-03T14:56:23;9.00;51.80
50758;DHT22;36732;47.980;11.652;2023-04-03T14:58:57;9.00;50.10
50758;DHT22;36732;47.980;11.652;2023-04-03T15:01:24;8.90;51.30
50758;DHT22;36732;47.980;11.652;2023-04-03T15:03:50;8.90;50.90
50758;DHT22;36732;47.980;11.652;2023-04-03T15:06:16;8.90;50.70
50758;DHT22;36732;47.980;11.652;2023-04-03T15:08:43;8.80;50.70
50758;DHT22;36732;47.980;11.652;2023-04-03T15:11:10;8.80;50.80
50758;DHT22;36732;47.980;11.652;2023-04-03T15:13:37;8.80;51.10
50758;DHT22;36732;47.980;11.652;2023-04-03T15:16:04;8.80;50.90
50758;DHT22;36732;47.980;11.652;2023-04-03T15:18:41;8.80;50.60
50758;DHT22;36732;47.980;11.652;2023-04-03T15:21:07;8.80;51.00
50758;DHT22;36732;47.980;11.652;2023-04-03T15:23:32;8.80;50.70
50758;DHT22;36732;47.980;11.652;2023-04-03T15:25:58;8.90;50.10
50758;DHT22;36732;47.980;11.652;2023-04-03T15:28:32;8.90;50.20
50758;DHT22;36732;47.980;11.652;2023-04-03T15:31:00;8.80;49.40
50758;DHT22;36732;47.980;11.652;2023-04-03T15:33:26;8.90;49.80
50758;DHT22;36732;47.980;11.652;2023-04-03T15:35:52;8.90;50.00
50758;DHT22;36732;47.980;11.652;2023-04-03T15:38:18;8.90;49.70
50758;DHT22;36732;47.980;11.652;2023-04-03T15:40:44;8.90;49.80
50758;DHT22;36732;47.980;11.652;2023-04-03T15:43:12;8.90;50.10
50758;DHT22;36732;47.980;11.652;2023-04-03T15:45:39;8.90;50.20
50758;DHT22;36732;47.980;11.652;2023-04-03T15:48:05;8.90;50.30
50758;DHT22;36732;47.980;11.652;2023-04-03T15:50:33;8.90;50.20
50758;DHT22;36732;47.980;11.652;2023-04-03T15:53:00;9.00;50.20
50758;DHT22;36732;47.980;11.652;2023-04-03T15:55:29;9.00;49.50
50758;DHT22;36732;47.980;11.652;2023-04-03T15:57:57;9.00;49.40
50758;DHT22;36732;47.980;11.652;2023-04-03T16:00:23;9.00;49.60
50758;DHT22;36732;47.980;11.652;2023-04-03T16:02:56;9.00;49.00
50758;DHT22;36732;47.980;11.652;2023-04-03T16:05:24;9.00;48.60
50758;DHT22;36732;47.980;11.652;2023-04-03T16:07:50;9.00;49.20
50758;DHT22;36732;47.980;11.652;2023-04-03T16:10:18;9.00;49.20
50758;DHT22;36732;47.980;11.652;2023-04-03T16:12:44;9.10;48.60
50758;DHT22;36732;47.980;11.652;2023-04-03T16:15:10;9.10;48.70
50758;DHT22;36732;47.980;11.652;2023-04-03T16:17:38;9.00;48.10
50758;DHT22;36732;47.980;11.652;2023-04-03T16:20:07;9.10;48.10
50758;DHT22;36732;47.980;11.652;2023-04-03T16:22:33;9.10;47.40
50758;DHT22;36732;47.980;11.652;2023-04-03T16:25:00;9.10;47.50
50758;DHT22;36732;47.980;11.652;2023-04-03T16:27:25;9.10;47.20
50758;DHT22;36732;47.980;11.652;2023-04-03T16:29:54;9.10;47.00
50758;DHT22;36732;47.980;11.652;2023-04-03T16:32:21;9.10;46.70
50758;DHT22;36732;47.980;11.652;2023-04-03T16:34:47;9.10;46.40
50758;DHT22;36732;47.980;11.652;2023-04-03T16:37:13;9.10;46.40
50758;DHT22;36732;47.980;11.652;2023-04-03T16:39:40;9.10;46.80
50758;DHT22;36732;47.980;11.652;2023-04-03T16:42:06;9.10;46.70
50758;DHT22;36732;47.980;11.652;2023-04-03T16:44:31;9.20;46.80
50758;DHT22;36732;47.980;11.652;2023-04-03T16:46:57;9.20;46.60
50758;DHT22;36732;47.980;11.652;2023-04-03T16:49:24;9.20;46.70
50758;DHT22;36732;47.980;11.652;2023-04-03T16:51:50;9.20;46.10
50758;DHT22;36732;47.980;11.652;2023-04-03T16:54:16;9.20;46.30
50758;DHT22;36732;47.980;11.652;2023-04-03T16:56:42;9.20;46.00
50758;DHT22;36732;47.980;11.652;2023-04-03T16:59:07;9.20;46.00
50758;DHT22;36732;47.980;11.652;2023-04-03T17:01:33;9.20;46.40
50758;DHT22;36732;47.980;11.652;2023-04-03T17:03:59;9.20;46.40
50758;DHT22;36732;47.980;11.652;2023-04-03T17:06:24;9.20;46.00
50758;DHT22;36732;47.980;11.652;2023-04-03T17:08:51;9.20;46.10
50758;DHT22;36732;47.980;11.652;2023-04-03T17:11:18;9.20;45.90
50758;DHT22;36732;47.980;11.652;2023-04-03T17:13:44;9.30;46.10
50758;DHT22;36732;47.980;11.652;2023-04-03T17:16:13;9.20;45.90